Time;durP1;ratioP1;P1;durP2;ratioP2;P2;SDS_P1;SDS_P2;PMS_P1;PMS_P2;Temp;Humidity;BMP_temperature;BMP_pressure;BME280_temperature;BME280_humidity;BME280_pressure;Samples;Min_cycle;Max_cycle;Signal;HPM_P1;HPM_P2
2022/12/04 00:01:41;;;;;;;24.07;9.67;;;7.70;87.30;;;;;;6214744;23;20227;-79
2022/12/04 00:04:10;;;;;;;23.73;9.97;;;7.80;87.50;;;;;;6215086;23;20237;-79
2022/12/04 00:06:39;;;;;;;21.77;9.47;;;7.80;87.70;;;;;;6214192;23;20265;-80
2022/12/04 00:09:07;;;;;;;16.77;7.93;;;7.80;87.60;;;;;;6211685;23;20552;-79
2022/12/04 00:11:38;;;;;;;22.73;10.38;;;7.80;87.60;;;;;;6213058;23;20403;-78
2022/12/04 00:14:06;;;;;;;19.43;9.03;;;7.80;87.90;;;;;;6213951;23;20213;-80
2022/12/04 00:16:35;;;;;;;21.57;9.13;;;7.90;88.00;;;;;;6213277;23;20171;-79
2022/12/04 00:19:04;;;;;;;20.30;8.70;;;7.90;88.00;;;;;;6215937;23;20175;-80
2022/12/04 00:21:34;;;;;;;21.17;8.50;;;7.80;88.10;;;;;;6214007;23;20245;-78
2022/12/04 00:24:02;;;;;;;17.23;7.83;;;7.90;88.10;;;;;;6211517;23;20175;-80
2022/12/04 00:26:31;;;;;;;19.50;8.03;;;7.90;88.20;;;;;;6212494;23;20198;-81
2022/12/04 00:29:00;;;;;;;13.93;7.10;;;7.90;88.40;;;;;;6214775;23;20167;-79
2022/12/04 00:31:30;;;;;;;15.83;8.03;;;7.90;88.80;;;;;;6214484;23;20549;-81
2022/12/04 00:33:59;;;;;;;18.57;7.80;;;7.90;89.00;;;;;;6213761;23;20178;-81
2022/12/04 00:36:29;;;;;;;16.80;8.40;;;7.90;88.80;;;;;;6210947;23;20151;-80
2022/12/04 00:38:59;;;;;;;19.87;7.97;;;7.80;89.60;;;;;;6212449;23;20551;-80
2022/12/04 00:41:30;;;;;;;14.97;7.17;;;7.80;89.40;;;;;;6214797;23;20228;-80
2022/12/04 00:43:58;;;;;;;16.70;7.90;;;7.90;89.40;;;;;;6215047;23;20168;-81
2022/12/04 00:46:28;;;;;;;16.40;7.67;;;7.80;90.00;;;;;;6214131;23;20262;-81
2022/12/04 00:48:58;;;;;;;14.23;6.50;;;7.80;89.70;;;;;;6213192;23;20163;-80
2022/12/04 00:51:26;;;;;;;13.00;6.33;;;7.80;89.70;;;;;;6214376;23;20179;-80
2022/12/04 00:53:55;;;;;;;12.47;6.67;;;7.80;90.10;;;;;;6214128;23;20497;-80
2022/12/04 00:56:25;;;;;;;12.13;5.87;;;7.70;90.30;;;;;;6213244;23;20206;-80
2022/12/04 00:58:54;;;;;;;12.90;5.90;;;7.80;90.20;;;;;;6213210;23;20194;-81
2022/12/04 01:01:24;;;;;;;12.57;5.87;;;7.70;90.30;;;;;;6213338;23;20171;-79
2022/12/04 01:03:55;;;;;;;11.10;5.73;;;7.70;90.20;;;;;;6214669;23;20505;-80
2022/12/04 01:06:25;;;;;;;13.43;6.10;;;7.80;90.20;;;;;;6214562;23;20222;-80
2022/12/04 01:08:55;;;;;;;11.90;5.60;;;7.80;90.30;;;;;;6212913;23;20530;-81
2022/12/04 01:11:25;;;;;;;11.83;5.50;;;7.80;90.30;;;;;;6214096;23;20213;-81
2022/12/04 01:13:53;;;;;;;10.37;4.80;;;7.80;90.70;;;;;;6214192;23;20194;-80
2022/12/04 01:16:24;;;;;;;10.67;5.07;;;7.80;90.30;;;;;;6213043;23;20509;-80
2022/12/04 01:18:55;;;;;;;9.93;4.83;;;7.90;90.30;;;;;;6212964;23;20541;-81
2022/12/04 01:21:23;;;;;;;8.63;4.00;;;7.90;90.30;;;;;;6213794;23;20186;-80
2022/12/04 01:23:51;;;;;;;9.67;4.53;;;7.90;90.40;;;;;;6213535;23;20248;-79
2022/12/04 01:26:21;;;;;;;9.17;4.40;;;7.90;90.40;;;;;;6212122;23;20206;-81
2022/12/04 01:28:49;;;;;;;10.83;5.07;;;7.90;90.40;;;;;;6213235;23;20171;-79
2022/12/04 01:31:20;;;;;;;9.00;4.13;;;7.90;90.50;;;;;;6213909;23;20178;-79
2022/12/04 01:33:49;;;;;;;8.53;4.33;;;7.90;90.50;;;;;;6213649;23;20535;-80
2022/12/04 01:36:21;;;;;;;8.30;4.13;;;7.90;90.50;;;;;;6213174;23;20178;-79
2022/12/04 01:38:50;;;;;;;7.97;3.83;;;7.90;90.50;;;;;;6213396;23;20160;-80
2022/12/04 01:41:21;;;;;;;7.77;3.97;;;7.90;90.50;;;;;;6214032;23;20845;-80
2022/12/04 01:44:12;;;;;;;7.63;4.03;;;7.90;90.50;;;;;;6214180;23;20205;-80
2022/12/04 01:46:41;;;;;;;7.40;4.00;;;7.90;90.70;;;;;;6211977;23;20163;-81
2022/12/04 01:49:12;;;;;;;8.00;3.93;;;7.90;90.60;;;;;;6213342;23;20175;-80
2022/12/04 01:51:45;;;;;;;9.63;4.27;;;7.90;90.70;;;;;;6213984;23;20159;-80
2022/12/04 01:54:20;;;;;;;9.63;4.53;;;7.90;90.70;;;;;;6213351;23;20213;-79
2022/12/04 01:56:52;;;;;;;8.07;4.30;;;7.90;90.90;;;;;;6213002;23;20220;-80
2022/12/04 01:59:24;;;;;;;8.93;4.10;;;7.90;90.80;;;;;;6208992;23;20173;-79
2022/12/04 02:01:57;;;;;;;8.50;4.00;;;7.90;90.80;;;;;;6212421;23;20216;-79
2022/12/04 02:04:25;;;;;;;8.77;4.53;;;7.90;90.70;;;;;;6213111;23;20167;-80
2022/12/04 02:06:55;;;;;;;11.77;3.77;;;8.00;90.70;;;;;;6212866;23;20240;-80
2022/12/04 02:09:24;;;;;;;9.70;4.30;;;8.00;90.80;;;;;;6212484;23;20160;-80
2022/12/04 02:12:03;;;;;;;9.47;4.93;;;8.00;90.90;;;;;;6211874;23;20159;-79
2022/12/04 02:14:38;;;;;;;8.30;4.60;;;8.00;90.90;;;;;;6212897;23;20212;-80
2022/12/04 02:17:17;;;;;;;7.90;4.37;;;8.00;90.90;;;;;;6211275;23;20193;-79
2022/12/04 02:20:21;;;;;;;9.40;4.63;;;7.90;91.00;;;;;;6212278;23;20241;-80
2022/12/04 02:23:19;;;;;;;9.50;4.80;;;7.90;91.00;;;;;;6210728;23;20619;-80
2022/12/04 02:25:57;;;;;;;7.73;4.27;;;8.00;91.00;;;;;;6212090;23;20207;-80
2022/12/04 02:28:30;;;;;;;9.97;4.90;;;7.90;91.00;;;;;;6212299;23;20232;-79
2022/12/04 02:31:01;;;;;;;7.60;3.87;;;7.90;91.10;;;;;;6210718;23;20169;-80
2022/12/04 02:33:37;;;;;;;8.07;4.03;;;7.90;91.00;;;;;;6213123;23;20155;-80
2022/12/04 02:36:11;;;;;;;9.73;4.20;;;7.90;91.10;;;;;;6212966;23;20232;-80
2022/12/04 02:38:44;;;;;;;9.00;4.40;;;7.90;91.10;;;;;;6213049;23;20155;-79
2022/12/04 02:41:17;;;;;;;8.93;3.80;;;8.00;91.20;;;;;;6214674;23;20213;-80
2022/12/04 02:43:49;;;;;;;6.80;3.50;;;8.00;91.10;;;;;;6214589;23;20170;-79
2022/12/04 02:46:24;;;;;;;7.57;3.67;;;8.00;91.20;;;;;;6213409;23;20159;-80
2022/12/04 02:48:56;;;;;;;9.53;3.97;;;7.90;91.20;;;;;;6215188;23;20325;-78
2022/12/04 02:51:26;;;;;;;7.33;4.17;;;8.00;91.20;;;;;;6213552;23;20171;-79
2022/12/04 02:53:59;;;;;;;7.47;3.70;;;8.00;91.20;;;;;;6215669;23;20156;-79
2022/12/04 02:56:31;;;;;;;7.03;3.50;;;8.00;91.10;;;;;;6213970;23;20163;-79
2022/12/04 02:59:05;;;;;;;6.93;3.67;;;8.10;91.10;;;;;;6215005;23;20156;-79
2022/12/04 03:01:38;;;;;;;7.03;3.60;;;8.10;91.10;;;;;;6213828;23;20163;-79
2022/12/04 03:04:14;;;;;;;6.10;3.33;;;8.10;91.10;;;;;;6215141;23;20164;-80
2022/12/04 03:06:47;;;;;;;8.30;3.67;;;8.20;91.10;;;;;;6214520;23;20155;-79
2022/12/04 03:09:20;;;;;;;7.03;3.37;;;8.20;91.00;;;;;;6214088;23;20175;-79
2022/12/04 03:11:54;;;;;;;7.03;3.50;;;8.20;91.00;;;;;;6213735;23;20550;-79
2022/12/04 03:14:27;;;;;;;8.93;3.60;;;8.20;91.00;;;;;;6212781;23;20254;-79
2022/12/04 03:17:01;;;;;;;8.07;3.90;;;8.10;90.90;;;;;;6213675;23;20160;-80
2022/12/04 03:19:36;;;;;;;8.93;3.87;;;8.10;90.90;;;;;;6214119;23;20221;-80
2022/12/04 03:22:07;;;;;;;7.77;3.87;;;8.20;91.10;;;;;;6212696;23;20163;-79
2022/12/04 03:24:39;;;;;;;7.60;4.45;;;8.20;91.00;;;;;;6212535;23;20388;-79
2022/12/04 03:27:12;;;;;;;8.70;3.93;;;8.20;91.10;;;;;;6208994;23;20166;-79
2022/12/04 03:29:46;;;;;;;8.33;3.60;;;8.20;91.10;;;;;;6211335;23;20206;-79
2022/12/04 03:32:20;;;;;;;7.30;3.67;;;8.20;91.10;;;;;;6211797;23;20332;-77
2022/12/04 03:34:53;;;;;;;6.67;3.90;;;8.10;91.10;;;;;;6212730;23;20163;-80
2022/12/04 03:37:30;;;;;;;8.03;3.97;;;8.10;91.00;;;;;;6211949;23;20160;-79
2022/12/04 03:40:03;;;;;;;8.87;4.13;;;8.10;91.00;;;;;;6212308;23;20170;-78
2022/12/04 03:42:38;;;;;;;7.03;3.60;;;8.10;91.10;;;;;;6212628;23;20217;-78
2022/12/04 03:45:13;;;;;;;6.70;3.37;;;8.10;91.10;;;;;;6211716;23;20667;-78
2022/12/04 03:47:46;;;;;;;7.47;4.47;;;8.00;91.10;;;;;;6210807;23;20159;-80
2022/12/04 03:50:20;;;;;;;7.00;4.00;;;8.00;91.20;;;;;;6211719;23;20209;-79
2022/12/04 03:52:57;;;;;;;7.43;4.07;;;7.90;91.50;;;;;;6212385;23;20252;-78
2022/12/04 03:55:29;;;;;;;9.47;4.30;;;7.90;91.30;;;;;;6212559;23;20163;-78
2022/12/04 03:58:02;;;;;;;8.00;4.10;;;7.90;91.40;;;;;;6209937;23;20159;-79
2022/12/04 04:00:36;;;;;;;7.33;3.87;;;7.90;91.40;;;;;;6212327;23;20156;-78
2022/12/04 04:03:10;;;;;;;7.57;4.00;;;7.90;91.50;;;;;;6211879;23;20608;-79
2022/12/04 04:05:43;;;;;;;9.40;4.63;;;7.90;91.60;;;;;;6211793;23;20195;-81
2022/12/04 04:08:29;;;;;;;9.07;4.20;;;7.80;91.60;;;;;;6211111;23;20182;-79
2022/12/04 04:11:06;;;;;;;8.13;4.17;;;7.90;91.60;;;;;;6210391;23;20171;-80
2022/12/04 04:24:59;;;;;;;6.47;3.63;;;7.80;91.70;;;;;;6125709;23;2012751;-79
2022/12/04 04:27:27;;;;;;;8.27;4.30;;;7.80;91.70;;;;;;6212941;23;20520;-79
2022/12/04 04:29:56;;;;;;;9.23;4.27;;;7.90;91.80;;;;;;6211396;23;20249;-79
2022/12/04 04:32:35;;;;;;;5.70;3.47;;;7.90;91.70;;;;;;6214343;23;20229;-78
2022/12/04 04:35:11;;;;;;;6.47;3.50;;;7.90;91.80;;;;;;6212962;23;20163;-80
2022/12/04 04:37:48;;;;;;;7.70;4.03;;;7.90;91.70;;;;;;6214274;23;20159;-80
2022/12/04 04:40:21;;;;;;;10.17;4.73;;;7.90;91.70;;;;;;6213468;23;20151;-79
2022/12/04 04:42:59;;;;;;;9.03;4.63;;;7.90;91.70;;;;;;6213574;23;20162;-80
2022/12/04 04:45:31;;;;;;;9.57;4.77;;;7.90;91.80;;;;;;6212815;23;20189;-81
2022/12/04 04:48:08;;;;;;;7.80;4.77;;;7.90;91.80;;;;;;6213952;23;20162;-79
2022/12/04 04:50:38;;;;;;;9.10;5.03;;;7.90;91.80;;;;;;6212223;23;20159;-80
2022/12/04 04:53:10;;;;;;;9.73;5.10;;;7.90;91.80;;;;;;6213389;23;20218;-79
2022/12/04 04:55:39;;;;;;;7.07;3.57;;;7.90;91.90;;;;;;6212581;23;20163;-80
2022/12/04 04:58:09;;;;;;;7.97;4.17;;;7.90;91.90;;;;;;6213355;23;20190;-78
2022/12/04 05:00:38;;;;;;;7.70;4.03;;;7.90;91.80;;;;;;6212615;23;20596;-80
2022/12/04 05:03:07;;;;;;;8.47;4.27;;;7.90;91.70;;;;;;6210992;23;20171;-78
2022/12/04 05:05:36;;;;;;;7.50;4.20;;;7.90;91.90;;;;;;6212961;23;20175;-79
2022/12/04 05:08:04;;;;;;;8.67;4.20;;;7.90;92.10;;;;;;6214088;23;20182;-79
2022/12/04 05:10:32;;;;;;;8.30;3.93;;;7.90;92.00;;;;;;6211714;23;20273;-79
2022/12/04 05:13:01;;;;;;;9.02;4.70;;;7.90;91.90;;;;;;6210975;23;20399;-81
2022/12/04 05:15:29;;;;;;;7.23;4.60;;;7.90;92.00;;;;;;6211938;23;20179;-81
2022/12/04 05:17:58;;;;;;;8.40;4.33;;;7.90;92.00;;;;;;6213936;23;20228;-79
2022/12/04 05:20:27;;;;;;;9.17;4.23;;;7.90;92.00;;;;;;6213149;23;20176;-79
2022/12/04 05:22:55;;;;;;;7.67;4.50;;;7.90;92.00;;;;;;6212352;23;20220;-79
2022/12/04 05:25:23;;;;;;;8.00;4.53;;;7.90;91.90;;;;;;6209725;23;20202;-78
2022/12/04 05:27:52;;;;;;;8.33;4.43;;;7.90;91.90;;;;;;6210543;23;20636;-81
2022/12/04 05:30:20;;;;;;;7.83;4.77;;;7.90;92.00;;;;;;6212144;23;20187;-79
2022/12/04 05:32:48;;;;;;;7.90;4.50;;;7.90;92.00;;;;;;6212828;23;20174;-80
2022/12/04 05:35:17;;;;;;;9.37;5.63;;;7.90;92.00;;;;;;6211143;23;20604;-80
2022/12/04 05:37:47;;;;;;;8.63;4.93;;;7.90;92.00;;;;;;6213651;23;20640;-79
2022/12/04 05:40:15;;;;;;;9.77;5.40;;;7.80;92.00;;;;;;6213436;23;20175;-79
2022/12/04 05:42:43;;;;;;;9.60;5.23;;;7.80;92.20;;;;;;6213856;23;20206;-79
2022/12/04 05:45:12;;;;;;;10.67;5.03;;;7.90;92.10;;;;;;6211262;23;20236;-79
2022/12/04 05:47:40;;;;;;;11.27;5.53;;;7.90;92.00;;;;;;6213688;23;20175;-79
2022/12/04 05:50:10;;;;;;;10.47;5.47;;;7.90;92.00;;;;;;6213390;23;20725;-79
2022/12/04 05:52:38;;;;;;;11.40;5.70;;;7.90;92.00;;;;;;6213549;23;20177;-80
2022/12/04 05:55:08;;;;;;;10.73;6.37;;;8.00;92.00;;;;;;6212251;23;20687;-78
2022/12/04 05:57:37;;;;;;;10.67;5.97;;;8.00;92.00;;;;;;6211893;23;20159;-79
2022/12/04 06:00:06;;;;;;;10.63;5.80;;;8.00;91.90;;;;;;6210100;23;20482;-79
2022/12/04 06:02:35;;;;;;;10.20;5.67;;;8.10;92.00;;;;;;6210257;23;20536;-78
2022/12/04 06:05:03;;;;;;;9.47;4.90;;;8.10;91.90;;;;;;6211250;23;20175;-77
2022/12/04 06:07:32;;;;;;;8.47;4.43;;;8.10;91.90;;;;;;6212187;23;20237;-79
2022/12/04 06:10:00;;;;;;;8.60;4.70;;;8.10;91.90;;;;;;6211000;23;20198;-80
2022/12/04 06:12:31;;;;;;;10.53;5.40;;;8.10;91.90;;;;;;6213254;23;20544;-77
2022/12/04 06:14:59;;;;;;;10.37;5.47;;;8.10;91.90;;;;;;6210337;23;20186;-78
2022/12/04 06:17:28;;;;;;;10.63;5.80;;;8.10;91.80;;;;;;6210986;23;20233;-80
2022/12/04 06:19:56;;;;;;;12.43;6.67;;;8.10;91.80;;;;;;6212416;23;20629;-79
2022/12/04 06:22:25;;;;;;;13.97;6.13;;;8.10;91.90;;;;;;6211500;23;20171;-78
2022/12/04 06:24:53;;;;;;;11.73;6.07;;;8.10;91.90;;;;;;6212358;23;20718;-78
2022/12/04 06:27:22;;;;;;;8.90;5.43;;;8.10;91.90;;;;;;6211617;23;20175;-79
2022/12/04 06:29:57;;;;;;;12.67;5.87;;;8.10;92.00;;;;;;6211083;23;20179;-79
2022/12/04 06:32:26;;;;;;;11.23;6.30;;;8.10;92.00;;;;;;6211780;23;20156;-79
2022/12/04 06:34:55;;;;;;;12.10;5.80;;;8.10;92.00;;;;;;6211817;23;20493;-78
2022/12/04 06:37:25;;;;;;;12.50;5.83;;;8.00;92.00;;;;;;6213577;23;20182;-79
2022/12/04 06:39:53;;;;;;;11.43;5.97;;;8.10;92.00;;;;;;6214046;23;20283;-79
2022/12/04 06:42:22;;;;;;;8.50;5.00;;;8.10;92.10;;;;;;6212912;23;20179;-79
2022/12/04 06:44:50;;;;;;;10.87;5.97;;;8.10;92.00;;;;;;6212823;23;20232;-79
2022/12/04 06:47:20;;;;;;;11.90;6.60;;;8.10;92.00;;;;;;6211646;23;20233;-78
2022/12/04 06:49:50;;;;;;;11.63;5.63;;;8.10;92.00;;;;;;6210080;23;20176;-78
2022/12/04 06:52:18;;;;;;;11.47;6.03;;;8.10;92.00;;;;;;6214006;23;20182;-78
2022/12/04 06:54:47;;;;;;;10.87;5.80;;;8.10;92.00;;;;;;6213106;23;20187;-78
2022/12/04 06:57:18;;;;;;;10.37;5.60;;;8.10;92.00;;;;;;6213332;23;20267;-79
2022/12/04 06:59:47;;;;;;;9.43;6.20;;;8.10;92.00;;;;;;6211304;23;20643;-79
2022/12/04 07:02:15;;;;;;;11.73;6.20;;;8.10;92.00;;;;;;6213069;23;20237;-80
2022/12/04 07:04:45;;;;;;;10.37;5.97;;;8.20;92.20;;;;;;6212513;23;20187;-79
2022/12/04 07:07:13;;;;;;;12.13;5.90;;;8.20;92.20;;;;;;6213109;23;20182;-78
2022/12/04 07:09:43;;;;;;;11.27;6.27;;;8.20;92.10;;;;;;6212903;23;20194;-79
2022/12/04 07:12:11;;;;;;;11.23;6.20;;;8.20;92.10;;;;;;6213267;23;20230;-79
2022/12/04 07:14:39;;;;;;;15.07;6.17;;;8.20;92.10;;;;;;6212157;23;20229;-76
2022/12/04 07:17:08;;;;;;;10.00;5.83;;;8.20;92.10;;;;;;6214611;23;20229;-79
2022/12/04 07:19:37;;;;;;;9.93;5.33;;;8.20;92.10;;;;;;6213681;23;20258;-78
2022/12/04 07:22:08;;;;;;;11.07;6.30;;;8.20;92.10;;;;;;6211744;23;20387;-77
2022/12/04 07:24:37;;;;;;;9.73;5.03;;;8.20;92.10;;;;;;6212909;23;20159;-79
2022/12/04 07:27:05;;;;;;;10.03;5.90;;;8.30;92.20;;;;;;6213836;23;20257;-77
2022/12/04 07:29:33;;;;;;;10.33;5.13;;;8.30;92.20;;;;;;6215242;23;20625;-77
2022/12/04 07:32:01;;;;;;;11.10;5.83;;;8.40;92.20;;;;;;6213715;23;20232;-78
2022/12/04 07:34:30;;;;;;;9.47;5.37;;;8.30;92.10;;;;;;6212677;23;20175;-78
2022/12/04 07:36:58;;;;;;;10.63;5.53;;;8.40;92.10;;;;;;6214752;23;20175;-76
2022/12/04 07:39:28;;;;;;;9.57;4.90;;;8.40;92.00;;;;;;6214151;23;20179;-76
2022/12/04 07:41:56;;;;;;;8.73;4.63;;;8.40;92.00;;;;;;6212710;23;20624;-78
2022/12/04 07:44:25;;;;;;;9.67;5.50;;;8.40;91.90;;;;;;6215312;23;20179;-77
2022/12/04 07:46:53;;;;;;;13.30;5.90;;;8.40;91.80;;;;;;6215644;23;20645;-77
2022/12/04 07:49:21;;;;;;;10.53;5.87;;;8.40;91.80;;;;;;6214184;23;20179;-77
2022/12/04 07:51:50;;;;;;;10.63;5.30;;;8.40;91.90;;;;;;6215282;23;20558;-77
2022/12/04 07:54:18;;;;;;;9.53;5.43;;;8.40;91.90;;;;;;6215205;23;20636;-77
2022/12/04 07:56:48;;;;;;;9.37;5.47;;;8.50;91.90;;;;;;6214866;23;20175;-78
2022/12/04 07:59:16;;;;;;;10.23;5.43;;;8.50;91.90;;;;;;6214949;23;20176;-78
2022/12/04 08:01:44;;;;;;;10.47;5.33;;;8.50;91.90;;;;;;6213200;23;20221;-79
2022/12/04 08:04:13;;;;;;;9.63;5.40;;;8.50;91.90;;;;;;6213723;23;20245;-78
2022/12/04 08:06:41;;;;;;;11.80;5.53;;;8.50;91.90;;;;;;6214667;23;20232;-78
2022/12/04 08:09:13;;;;;;;8.23;4.93;;;8.50;91.90;;;;;;6213358;23;20233;-79
2022/12/04 08:11:41;;;;;;;10.20;5.20;;;8.50;91.90;;;;;;6211133;23;20186;-78
2022/12/04 08:14:12;;;;;;;8.93;5.27;;;8.50;91.90;;;;;;6214639;23;20550;-79
2022/12/04 08:16:42;;;;;;;11.93;5.40;;;8.50;92.00;;;;;;6214293;23;20523;-78
2022/12/04 08:19:18;;;;;;;9.43;5.97;;;8.50;92.00;;;;;;6214674;23;20185;-78
2022/12/04 08:21:46;;;;;;;10.17;5.43;;;8.50;92.10;;;;;;6214568;23;20556;-77
2022/12/04 08:24:14;;;;;;;9.97;5.77;;;8.40;92.00;;;;;;6215860;23;20534;-78
2022/12/04 08:26:43;;;;;;;9.83;5.73;;;8.40;92.00;;;;;;6215363;23;20199;-78
2022/12/04 08:29:12;;;;;;;12.37;6.77;;;8.50;92.00;;;;;;6215194;23;20233;-76
2022/12/04 08:31:41;;;;;;;10.90;6.17;;;8.50;92.00;;;;;;6214940;23;20245;-79
2022/12/04 08:34:09;;;;;;;11.90;6.90;;;8.50;92.00;;;;;;6214739;23;20204;-79
2022/12/04 08:36:37;;;;;;;10.37;6.67;;;8.60;92.10;;;;;;6214715;23;20178;-79
2022/12/04 08:39:07;;;;;;;12.97;6.33;;;8.60;92.10;;;;;;6215371;23;20636;-78
2022/12/04 08:41:35;;;;;;;10.67;5.97;;;8.60;92.10;;;;;;6214926;23;20486;-79
2022/12/04 08:44:04;;;;;;;9.37;5.70;;;8.60;92.20;;;;;;6215361;23;20624;-79
2022/12/04 08:46:34;;;;;;;10.23;5.97;;;8.60;92.30;;;;;;6215642;23;20202;-80
2022/12/04 08:49:03;;;;;;;9.20;5.27;;;8.60;92.30;;;;;;6211958;23;20265;-79
2022/12/04 08:51:34;;;;;;;13.13;5.80;;;8.60;92.20;;;;;;6211085;23;20729;-78
2022/12/04 08:54:06;;;;;;;10.80;5.33;;;8.60;92.20;;;;;;6213909;23;20164;-80
2022/12/04 08:56:36;;;;;;;9.33;5.77;;;8.70;92.30;;;;;;6211382;23;20659;-78
2022/12/04 08:59:04;;;;;;;9.63;5.40;;;8.70;92.20;;;;;;6209292;23;20162;-79
2022/12/04 09:01:34;;;;;;;8.77;4.93;;;8.70;92.30;;;;;;6214980;23;20190;-78
2022/12/04 09:04:02;;;;;;;9.17;5.13;;;8.70;92.20;;;;;;6212643;23;20181;-79
2022/12/04 09:06:31;;;;;;;8.23;4.70;;;8.70;92.20;;;;;;6214039;23;20176;-78
2022/12/04 09:09:00;;;;;;;8.67;4.60;;;8.70;92.20;;;;;;6214507;23;20251;-79
2022/12/04 09:11:31;;;;;;;11.43;6.03;;;8.80;92.20;;;;;;6211067;23;20672;-80
2022/12/04 09:14:00;;;;;;;8.73;5.27;;;8.70;92.20;;;;;;6211865;23;20210;-79
2022/12/04 09:16:29;;;;;;;6.67;4.20;;;8.70;92.20;;;;;;6213992;23;20175;-79
2022/12/04 09:18:59;;;;;;;8.50;4.90;;;8.80;92.20;;;;;;6212114;23;20178;-78
2022/12/04 09:21:27;;;;;;;9.40;5.00;;;8.80;92.20;;;;;;6214271;23;20225;-79
2022/12/04 09:23:59;;;;;;;8.10;4.83;;;8.80;92.20;;;;;;6213439;23;20175;-79
2022/12/04 09:26:31;;;;;;;8.80;5.33;;;8.80;92.20;;;;;;6213100;23;20245;-80
2022/12/04 09:29:00;;;;;;;9.00;4.50;;;8.80;92.10;;;;;;6214064;23;20165;-79
2022/12/04 09:31:29;;;;;;;8.60;4.57;;;8.80;92.20;;;;;;6213954;23;20656;-79
2022/12/04 09:34:00;;;;;;;8.77;4.60;;;8.80;92.10;;;;;;6213489;23;20210;-80
2022/12/04 09:36:28;;;;;;;8.37;4.63;;;8.90;92.20;;;;;;6214373;23;20159;-80
2022/12/04 09:38:58;;;;;;;8.43;4.13;;;8.90;92.20;;;;;;6212180;23;20217;-78
2022/12/04 09:41:47;;;;;;;8.23;4.17;;;8.90;92.10;;;;;;6212099;23;20178;-78
2022/12/04 09:44:21;;;;;;;6.73;3.43;;;8.90;92.10;;;;;;6195112;23;20624;-80
2022/12/04 09:46:55;;;;;;;6.50;3.93;;;8.90;92.10;;;;;;6211767;23;20818;-79
2022/12/04 09:49:29;;;;;;;8.20;4.10;;;8.90;92.10;;;;;;6213050;23;20659;-77
2022/12/04 09:52:02;;;;;;;7.00;3.83;;;8.90;92.10;;;;;;6213046;23;20179;-77
2022/12/04 09:54:40;;;;;;;6.07;3.57;;;8.90;92.10;;;;;;6214284;23;20544;-78
2022/12/04 09:57:15;;;;;;;7.43;4.40;;;9.00;92.10;;;;;;6210267;23;20155;-80
2022/12/04 09:59:44;;;;;;;7.90;4.10;;;9.00;92.10;;;;;;6211846;23;20166;-78
2022/12/04 10:02:27;;;;;;;9.03;4.33;;;9.00;92.10;;;;;;6210846;23;20171;-79
2022/12/04 10:04:57;;;;;;;9.30;4.57;;;9.00;92.10;;;;;;6210339;23;20163;-79
2022/12/04 10:07:31;;;;;;;8.50;4.50;;;9.00;92.00;;;;;;6210248;23;20171;-78
2022/12/04 10:10:05;;;;;;;19.97;7.57;;;9.00;92.00;;;;;;6210863;23;20159;-77
2022/12/04 10:12:44;;;;;;;14.13;6.60;;;9.00;92.00;;;;;;6212462;23;20225;-78
2022/12/04 10:15:23;;;;;;;10.70;6.00;;;9.00;92.00;;;;;;6210656;23;20182;-76
2022/12/04 10:18:20;;;;;;;12.30;5.70;;;9.00;92.10;;;;;;6212045;23;20160;-79
2022/12/04 10:21:10;;;;;;;12.20;6.67;;;9.00;92.10;;;;;;6212806;23;20171;-79
2022/12/04 10:23:51;;;;;;;12.57;5.53;;;9.00;92.10;;;;;;6210930;23;20528;-79
2022/12/04 10:26:23;;;;;;;9.57;5.47;;;9.00;92.10;;;;;;6212191;23;20203;-78
2022/12/04 10:28:56;;;;;;;14.20;6.37;;;9.00;92.20;;;;;;6212946;23;20640;-78
2022/12/04 10:31:26;;;;;;;12.77;6.33;;;9.00;92.30;;;;;;6210100;23;20702;-80
2022/12/04 10:34:18;;;;;;;12.90;6.90;;;9.00;92.30;;;;;;6209222;23;20549;-81
2022/12/04 10:37:21;;;;;;;15.07;6.87;;;9.00;92.30;;;;;;6171023;23;20171;-80
2022/12/04 10:54:10;;;;;;;10.80;5.57;;;8.90;92.40;;;;;;6052512;23;20179;-81
2022/12/04 10:59:40;;;;;;;8.73;5.13;;;8.90;92.40;;;;;;6093621;23;20231;-81
2022/12/04 11:02:20;;;;;;;9.27;5.27;;;8.90;92.50;;;;;;6121480;23;20233;-80
2022/12/04 11:05:01;;;;;;;9.67;5.50;;;8.90;92.50;;;;;;6123955;23;20693;-83
2022/12/04 11:07:34;;;;;;;8.80;5.70;;;8.90;92.40;;;;;;6122667;23;20164;-80
2022/12/04 11:10:07;;;;;;;9.87;5.17;;;8.80;92.50;;;;;;6150967;23;20213;-79
2022/12/04 11:12:36;;;;;;;9.57;5.23;;;8.90;92.50;;;;;;6214224;23;20485;-80
2022/12/04 11:15:14;;;;;;;9.30;5.13;;;8.90;92.50;;;;;;6213712;23;20237;-79
2022/12/04 11:17:52;;;;;;;9.70;5.33;;;8.90;92.50;;;;;;6212272;23;20171;-81
2022/12/04 11:20:28;;;;;;;9.13;5.47;;;8.90;92.50;;;;;;6162278;23;20171;-80
2022/12/04 11:22:59;;;;;;;11.00;5.53;;;8.90;92.60;;;;;;6214574;23;20155;-77
2022/12/04 11:25:35;;;;;;;9.97;5.40;;;8.90;92.60;;;;;;6212186;23;20199;-80
2022/12/04 11:28:05;;;;;;;7.53;4.37;;;8.90;92.50;;;;;;6214582;23;20159;-80
2022/12/04 11:30:37;;;;;;;7.80;4.90;;;8.90;92.50;;;;;;6214590;23;20148;-79
2022/12/04 11:33:15;;;;;;;10.30;5.13;;;8.90;92.50;;;;;;6214588;23;20180;-78
2022/12/04 11:35:50;;;;;;;7.83;4.47;;;9.00;92.50;;;;;;6212294;23;20162;-81
2022/12/04 11:38:26;;;;;;;8.43;4.87;;;9.00;92.60;;;;;;6213729;23;20159;-80
2022/12/04 11:40:59;;;;;;;10.47;4.33;;;9.00;92.50;;;;;;6214321;23;20592;-80
2022/12/04 11:43:39;;;;;;;9.43;4.90;;;9.10;92.50;;;;;;6212939;23;20719;-80
2022/12/04 11:46:21;;;;;;;9.63;4.97;;;9.10;92.50;;;;;;6213797;23;20164;-80
2022/12/04 11:48:50;;;;;;;8.33;4.90;;;9.10;92.50;;;;;;6211808;23;20159;-80
2022/12/04 11:51:29;;;;;;;9.53;5.30;;;9.20;92.50;;;;;;6212804;23;20179;-79
2022/12/04 11:54:14;;;;;;;13.53;6.57;;;9.20;92.40;;;;;;6213724;23;20182;-80
2022/12/04 11:57:03;;;;;;;10.97;6.13;;;9.20;92.30;;;;;;6212792;23;20178;-81
2022/12/04 11:59:47;;;;;;;11.90;6.00;;;9.20;92.30;;;;;;6214650;23;20163;-82
2022/12/04 12:02:38;;;;;;;11.07;6.17;;;9.20;92.30;;;;;;6213301;23;20155;-83
2022/12/04 12:05:34;;;;;;;9.77;5.73;;;9.20;92.30;;;;;;6213951;23;20493;-81
2022/12/04 12:08:24;;;;;;;9.53;5.57;;;9.20;92.20;;;;;;6212368;23;20187;-80
2022/12/04 12:11:02;;;;;;;10.60;5.95;;;9.20;92.30;;;;;;6213711;23;20398;-79
2022/12/04 12:13:45;;;;;;;8.90;5.63;;;9.20;92.30;;;;;;6213288;23;20171;-79
2022/12/04 12:16:34;;;;;;;9.20;5.83;;;9.20;92.30;;;;;;6213095;23;20322;-82
2022/12/04 12:19:25;;;;;;;15.07;6.80;;;9.20;92.30;;;;;;6209739;23;20201;-78
2022/12/04 12:22:02;;;;;;;11.60;6.87;;;9.30;92.30;;;;;;6211305;23;20179;-78
2022/12/04 12:24:45;;;;;;;15.33;7.93;;;9.30;92.30;;;;;;6210781;23;20190;-77
2022/12/04 12:27:34;;;;;;;14.73;8.10;;;9.30;92.40;;;;;;6210153;23;20166;-79
2022/12/04 12:30:09;;;;;;;11.80;5.93;;;9.30;92.30;;;;;;6210545;23;20641;-78
2022/12/04 12:33:01;;;;;;;15.13;7.40;;;9.30;92.30;;;;;;6210098;23;20189;-81
2022/12/04 12:35:37;;;;;;;11.37;6.30;;;9.30;92.60;;;;;;6212990;23;20647;-79
2022/12/04 12:38:10;;;;;;;14.67;7.43;;;9.30;92.30;;;;;;6212308;23;20155;-78
2022/12/04 12:40:43;;;;;;;11.87;7.00;;;9.30;92.30;;;;;;6211109;23;20167;-77
2022/12/04 12:43:15;;;;;;;12.07;6.37;;;9.30;92.30;;;;;;6210830;23;20164;-79
2022/12/04 12:45:52;;;;;;;12.93;6.40;;;9.30;92.30;;;;;;6210747;23;20681;-79
2022/12/04 12:48:28;;;;;;;13.53;6.93;;;9.30;92.30;;;;;;6210662;23;20186;-79
2022/12/04 12:51:03;;;;;;;12.87;6.67;;;9.40;92.40;;;;;;6210886;23;20489;-78
2022/12/04 12:54:15;;;;;;;13.53;6.77;;;9.30;92.40;;;;;;6209491;23;20249;-79
2022/12/04 12:56:53;;;;;;;11.83;6.00;;;9.30;92.40;;;;;;6211063;23;20156;-77
2022/12/04 12:59:25;;;;;;;10.07;5.83;;;9.30;92.40;;;;;;6209943;23;20529;-78
2022/12/04 13:01:57;;;;;;;12.90;6.17;;;9.30;92.30;;;;;;6211287;23;20160;-77
2022/12/04 13:04:35;;;;;;;15.03;6.87;;;9.30;92.30;;;;;;6209748;23;20209;-80
2022/12/04 13:07:25;;;;;;;12.27;5.80;;;9.30;92.40;;;;;;6212761;23;20198;-78
2022/12/04 13:10:00;;;;;;;13.80;6.70;;;9.30;92.50;;;;;;6211956;23;20163;-78
2022/12/04 13:12:32;;;;;;;11.00;6.10;;;9.30;92.50;;;;;;6210911;23;20564;-78
2022/12/04 13:15:01;;;;;;;9.80;5.73;;;9.30;92.50;;;;;;6210373;23;20245;-79
2022/12/04 13:17:33;;;;;;;12.40;5.60;;;9.30;92.50;;;;;;6209485;23;20175;-76
2022/12/04 13:20:05;;;;;;;9.90;6.07;;;9.20;92.40;;;;;;6211600;23;20174;-79
2022/12/04 13:22:51;;;;;;;13.23;6.37;;;9.20;92.50;;;;;;6206912;23;20159;-77
2022/12/04 13:25:34;;;;;;;10.10;5.83;;;9.20;92.50;;;;;;6209486;23;20198;-77
2022/12/04 13:28:15;;;;;;;9.40;5.57;;;9.20;92.50;;;;;;6211400;23;20159;-79
2022/12/04 13:30:48;;;;;;;11.07;6.37;;;9.20;92.50;;;;;;6210701;23;20600;-79
2022/12/04 13:33:50;;;;;;;13.90;6.67;;;9.10;92.40;;;;;;6208201;23;20233;-77
2022/12/04 13:36:41;;;;;;;12.83;6.33;;;9.10;92.70;;;;;;6209741;23;20174;-76
2022/12/04 13:39:44;;;;;;;9.50;5.57;;;9.10;92.60;;;;;;6211953;23;20182;-78
2022/12/04 13:42:23;;;;;;;11.67;6.37;;;9.10;92.50;;;;;;6213126;23;20178;-78
2022/12/04 13:44:56;;;;;;;14.27;6.83;;;9.10;92.50;;;;;;6211300;23;20468;-80
2022/12/04 13:47:28;;;;;;;13.30;6.80;;;9.10;92.50;;;;;;6213600;23;20595;-79
2022/12/04 13:50:25;;;;;;;10.40;6.40;;;9.10;92.50;;;;;;6211174;23;20214;-81
2022/12/04 13:52:53;;;;;;;10.83;6.17;;;9.10;92.50;;;;;;6213239;23;20183;-79